Portada
METAR-TAF:

METAR-TAF

Aeroports :

Seül Inchon, Corea del Sud

latitud: 37-28N, longitud: 126-27E, altitud: 7 m

Observació

L'informe es va fer fa 43 minuts, a les 07:00 UTC
Vent 3 kt del Est, variant entre Nord i Sud-Est
Temperatura 20°C
Humitat 46%
Pressió 1018 hPa
Visibilitat 10 km o més
sense núvols per sota de 1500 mi sense presència de cumulonimbus.

METAR: RKSI 230700Z 09003KT 360V140 CAVOK 20/08 Q1018 NOSIG

Hora: 16:43 (07:43 UTC)

Pronòstic

L'informe es va fer fa 2 hores i 43 minuts, a les 05:00 UTC
Pronòstic vàlid del 23 a les 06 UTC al 24 a les 12 UTC
Vent 6 kt del Est/Nord-Est
Visibilitat 10 km o més
sense núvols per sota de 1500 mi sense presència de cumulonimbus.
Evolucionant progressivament
l' 23 a les 18 UTC al 23 a les 19 UTC
Vent 10 kt del Nord
Visibilitat: 6000 m
Núvols disperses a una alçada de 3000 ft
Cel ennuvolat a una alçada de 10000 ft

TAF: RKSI 230500Z 2306/2412 07006KT CAVOK TN14/2321Z TX22/2405Z BECMG 2318/2319 01010KT 6000 SCT030 BKN100

Observacions i pronòstics meteorològics de més de 4000 aeroports (METAR i TAF).

Les estacions disponibles són els punts grocs i vermells al mapa.

Posi el ratolí al punt desitjat per veure el nom de l'estació.

Feu clic per veure les observacions i els pronòstics meteorològics.

Per canviar el mapa: feu clic els botons verds amb una creu de color negre per apropar; al botó verd amb un guió per allunyar la imatge; o en les fletxes verdes per a mapes adjacents.


METAR-TAF: